Kokkari — C6WV2 — position and weather

sailwx.info

Track history (hours):
 
Tides and Currents Weather Stations Pressure Air Temp Water Temp Dewpoint Dewpoint Depression Visibility Wind Speed Wind Dir Waves Ship Positions

Kokkari

Last reported at 2018-May-19 10:13 UTC. Time now 2018-Jun-20 07:08 UTC.
Position N 50°19' W 012°51'.
Warning: this ship's position is 31 days out of date.

Length 330 m; draft 20.5 m.

Type: Ship. MMSI: 311001100.

Date/timePositionNaut miles runAvg speedWind from/ knotsBaromVisibWave heightAir tempDewpointWater temp
2018-May-19 10:13N 50°19' W 012°51'2211.4
2018-May-19 08:16N 50°40' W 012°44'311.3
2018-May-19 08:00N 50°43' W 012°44'711.2
2018-May-19 07:24N 50°50' W 012°42'411.0
2018-May-19 07:00N 50°54' W 012°40'1011.2
2018-May-19 06:09N 51°04' W 012°37'611.4
2018-May-19 05:37N 51°10' W 012°35'2611.6
2018-May-19 03:22N 51°35' W 012°27'411.9
2018-May-19 03:00N 51°39' W 012°25'11411.7
2018-May-18 17:16N 53°31' W 011°48'1611.7
2018-May-18 15:53N 53°47' W 011°42'512.0
2018-May-18 15:27N 53°52' W 011°40'612.3
2018-May-18 14:59N 53°58' W 011°38'2911.8
2018-May-18 12:33N 54°26' W 011°29'212.0
2018-May-18 12:22N 54°28' W 011°28'712.0
2018-May-18 11:48N 54°35' W 011°26'  
2018-May-16 00:33N 57°18' W 001°23'0 7.7
2018-May-16 00:30N 57°17' W 001°23'11 8.1
2018-May-15 23:10N 57°07' W 001°30'2 8.5
2018-May-15 22:59N 57°06' W 001°31'5 8.9
2018-May-15 22:25N 57°01' W 001°35'4 9.3
2018-May-15 22:00N 56°58' W 001°37'3110.6
2018-May-15 19:07N 56°29' W 001°58'311.0
2018-May-15 18:52N 56°27' W 001°60'710.7
2018-May-15 18:10N 56°21' W 002°09'210.6
2018-May-15 18:00N 56°20' W 002°11'510.7
2018-May-15 17:30N 56°16' W 002°18'510.5
2018-May-15 17:00N 56°12' W 002°25'510.2
2018-May-15 16:30N 56°09' W 002°31'510.0
2018-May-15 16:00N 56°07' W 002°39'5 9.4
2018-May-15 15:30N 56°06' W 002°47'4 8.6
2018-May-15 15:00N 56°05' W 002°55'4 7.6
2018-May-15 14:30N 56°04' W 003°01'3 5.8
2018-May-15 14:00N 56°03' W 003°06'3 6.8
2018-May-15 13:30N 56°02' W 003°12'4 7.4
2018-May-15 13:00N 56°01' W 003°19'  
2018-May-12 20:32N 56°00' W 003°22'0 0.0
2018-May-12 20:29N 56°00' W 003°22'0 0.1
2018-May-12 20:00N 56°00' W 003°22'0 0.3
2018-May-12 19:30N 56°00' W 003°22'1 2.7
2018-May-12 19:00N 56°01' W 003°20'3 5.5
2018-May-12 18:30N 56°02' W 003°15'510.5
2018-May-12 18:00N 56°04' W 003°06'4 7.1
2018-May-12 17:30N 56°04' W 002°60'2 3.8
2018-May-12 17:00N 56°03' W 002°57'0 0.7
2018-May-12 16:28N 56°03' W 002°57'0 0.1
2018-May-12 15:58N 56°03' W 002°57'0 0.1
2018-May-12 15:28N 56°03' W 002°57'0 0.1
2018-May-12 14:58N 56°03' W 002°57'0 0.1
2018-May-12 14:28N 56°03' W 002°57'0 0.1
2018-May-12 13:58N 56°03' W 002°57'0 0.1
2018-May-12 13:28N 56°03' W 002°57'0 0.1
2018-May-12 12:58N 56°03' W 002°57'0 0.1
2018-May-12 12:28N 56°03' W 002°57'0 0.8
2018-May-12 12:00N 56°03' W 002°58'2 4.3
2018-May-12 11:31N 56°05' W 002°56'4 8.8
2018-May-12 11:00N 56°06' W 002°49'510.1
2018-May-12 10:30N 56°07' W 002°40'5 9.3
2018-May-12 10:00N 56°06' W 002°31'5 9.8
2018-May-12 09:31N 56°04' W 002°23'5 9.9
2018-May-12 09:00N 56°03' W 002°15'510.1
2018-May-12 08:31N 56°01' W 002°07'510.0
2018-May-12 08:01N 55°59' W 001°59'510.0
2018-May-12 07:30N 55°56' W 001°51'510.1
2018-May-12 07:01N 55°53' W 001°44'5 9.9
2018-May-12 06:31N 55°50' W 001°37'510.1
2018-May-12 06:01N 55°47' W 001°29'510.2
2018-May-12 05:31N 55°44' W 001°22'5 9.9
2018-May-12 05:01N 55°41' W 001°15'510.1
2018-May-12 04:31N 55°39' W 001°07'5 9.8
2018-May-12 04:01N 55°36' W 001°00'5 9.6
2018-May-12 03:31N 55°33' W 000°53'5 9.5
2018-May-12 03:01N 55°30' W 000°46'5 9.4
2018-May-12 02:31N 55°28' W 000°39'5 9.3
2018-May-12 02:01N 55°25' W 000°33'10 9.3
2018-May-12 00:58N 55°19' W 000°19'4 9.4
2018-May-12 00:30N 55°17' W 000°12'8 9.6
2018-May-11 23:42N 55°13' W 000°01'2 9.7
2018-May-11 23:30N 55°11' E 000°02'7 9.9
2018-May-11 22:45N 55°07' E 000°12'210.1
2018-May-11 22:31N 55°05' E 000°15'510.2
2018-May-11 22:00N 55°02' E 000°22'510.2
2018-May-11 21:30N 54°59' E 000°29'510.3
2018-May-11 21:01N 54°55' E 000°35'510.4
2018-May-11 20:31N 54°52' E 000°42'510.4
2018-May-11 20:00N 54°49' E 000°49'510.4
2018-May-11 19:30N 54°45' E 000°56'510.6
2018-May-11 19:01N 54°42' E 001°03'510.6
2018-May-11 18:31N 54°38' E 001°10'510.5
2018-May-11 18:01N 54°35' E 001°17'510.4
2018-May-11 17:31N 54°31' E 001°23'510.1
2018-May-11 17:01N 54°28' E 001°30'510.0
2018-May-11 16:30N 54°25' E 001°36'5 9.8
2018-May-11 16:00N 54°21' E 001°42'5 9.7
2018-May-11 15:31N 54°18' E 001°48'5 9.6
2018-May-11 14:59N 54°14' E 001°54'5 9.6
2018-May-11 14:30N 54°11' E 001°59'510.0
2018-May-11 14:01N 54°07' E 002°05'510.2
2018-May-11 13:30N 54°03' E 002°10'510.2
2018-May-11 12:58N 53°59' E 002°17'810.5
2018-May-11 12:10N 53°53' E 002°26'210.8
2018-May-11 12:00N 53°51' E 002°28'710.9
2018-May-11 11:22N 53°46' E 002°36'510.8
2018-May-11 10:57N 53°43' E 002°41'1310.9
2018-May-11 09:47N 53°34' E 002°57'7 7.9
2018-May-11 08:53N 53°27' E 002°58'4 9.6
2018-May-11 08:29N 53°24' E 002°55'712.4
2018-May-11 07:54N 53°17' E 002°50'613.8
2018-May-11 07:29N 53°12' E 002°46'713.7
2018-May-11 06:58N 53°05' E 002°41'713.4
2018-May-11 06:27N 52°58' E 002°41'613.3
2018-May-11 06:00N 52°52' E 002°41'613.0
2018-May-11 05:30N 52°46' E 002°40'812.2
2018-May-11 04:49N 52°38' E 002°40'411.8
2018-May-11 04:30N 52°34' E 002°40'611.8
2018-May-11 04:00N 52°28' E 002°40'612.0
2018-May-11 03:30N 52°22' E 002°40'712.5
2018-May-11 02:59N 52°15' E 002°40'712.8
2018-May-11 02:27N 52°09' E 002°40'613.0
2018-May-11 02:00N 52°03' E 002°40'713.2
2018-May-11 01:30N 51°56' E 002°40'712.4
2018-May-11 00:59N 51°50' E 002°39'613.3
2018-May-11 00:30N 51°45' E 002°33'713.4
2018-May-11 00:00N 51°39' E 002°26'713.4
2018-May-10 23:30N 51°34' E 002°20'713.6
2018-May-10 23:00N 51°29' E 002°12'1413.7
2018-May-10 22:00N 51°19' E 001°57'713.6
2018-May-10 21:30N 51°14' E 001°51'713.9
2018-May-10 21:00N 51°09' E 001°43'714.3
2018-May-10 20:30N 51°03' E 001°36'714.7
2018-May-10 20:00N 50°57' E 001°29'714.1
2018-May-10 19:30N 50°50' E 001°26'714.5
2018-May-10 19:00N 50°43' E 001°23'713.6
2018-May-10 18:30N 50°38' E 001°16'714.3
2018-May-10 18:00N 50°34' E 001°07'714.5
2018-May-10 17:30N 50°29' E 000°58'714.5
2018-May-10 17:00N 50°26' E 000°48'814.9
2018-May-10 16:30N 50°24' E 000°37'715.1
2018-May-10 16:00N 50°22' E 000°26'815.1
2018-May-10 15:30N 50°20' E 000°14'815.2
2018-May-10 15:01N 50°18' E 000°03'715.0
2018-May-10 14:31N 50°15' W 000°08'714.9
2018-May-10 14:00N 50°12' W 000°19'714.7
2018-May-10 13:30N 50°09' W 000°29'612.7
2018-May-10 13:00N 50°04' W 000°36'713.6
2018-May-10 12:31N 49°59' W 000°30'714.0
2018-May-10 12:00N 49°53' W 000°24'713.5
2018-May-10 11:30N 49°48' W 000°16'613.0
2018-May-10 11:00N 49°44' W 000°09'612.2
2018-May-10 10:30N 49°41' W 000°00'510.2
2018-May-10 10:01N 49°39' E 000°07'1 2.0
2018-May-10 09:30N 49°40' E 000°08'0 0.0
2018-May-10 09:00N 49°40' E 000°08'0 0.0
2018-May-10 08:30N 49°40' E 000°08'0 0.0
2018-May-10 08:00N 49°40' E 000°08'0 0.0
2018-May-10 07:30N 49°40' E 000°08'0 0.0
2018-May-10 07:00N 49°40' E 000°08'0 0.0
2018-May-10 06:30N 49°40' E 000°08'0 0.0
2018-May-10 05:51N 49°40' E 000°08'0 0.0
2018-May-10 05:30N 49°40' E 000°08'0 0.0
2018-May-10 05:00N 49°40' E 000°08'0 0.0
2018-May-10 04:30N 49°40' E 000°08'0 0.0
2018-May-10 04:00N 49°40' E 000°08'0 0.0
2018-May-10 03:30N 49°40' E 000°08'0 0.0
2018-May-10 03:00N 49°40' E 000°08'0 0.0
2018-May-10 02:30N 49°40' E 000°08'0 0.0
2018-May-10 02:00N 49°40' E 000°08'0 0.0
2018-May-10 01:30N 49°40' E 000°08'0 0.0
2018-May-10 01:00N 49°40' E 000°08'0 0.0
2018-May-10 00:30N 49°40' E 000°08'0 0.0
2018-May-09 23:57N 49°40' E 000°08'0 0.0
2018-May-09 23:30N 49°40' E 000°08'0 0.0
2018-May-09 23:00N 49°40' E 000°08'0 0.0
2018-May-09 22:27N 49°40' E 000°08'0 0.0
2018-May-09 21:57N 49°40' E 000°08'0 0.0
2018-May-09 21:21N 49°40' E 000°08'0 0.0
2018-May-09 20:57N 49°40' E 000°08'0 0.0
2018-May-09 20:30N 49°40' E 000°08'0 0.0
2018-May-09 20:00N 49°40' E 000°08'0 0.0
2018-May-09 19:30N 49°40' E 000°08'0 0.0
2018-May-09 19:00N 49°40' E 000°08'0 0.0
2018-May-09 18:30N 49°40' E 000°08'0 0.0
2018-May-09 18:00N 49°40' E 000°08'0 0.0
2018-May-09 17:30N 49°40' E 000°08'0 0.0
2018-May-09 17:00N 49°40' E 000°08'0 0.0
2018-May-09 16:30N 49°40' E 000°08'0 0.0
2018-May-09 16:00N 49°40' E 000°08'0 0.0
2018-May-09 15:30N 49°40' E 000°08'0 0.0
2018-May-09 15:00N 49°40' E 000°08'0 0.0
2018-May-09 14:30N 49°40' E 000°08'0 0.0
2018-May-09 14:00N 49°40' E 000°08'0 0.0
2018-May-09 13:30N 49°40' E 000°08'0 0.0
2018-May-09 13:00N 49°40' E 000°08'0 0.0
2018-May-09 12:30N 49°40' E 000°08'0 0.0
2018-May-09 12:00N 49°40' E 000°08'0 0.0
2018-May-09 11:24N 49°40' E 000°08'0 0.0
2018-May-09 11:00N 49°40' E 000°08'0 0.0
2018-May-09 10:30N 49°40' E 000°08'  
Track history (hours):
 
Tides and Currents Weather Stations Pressure Air Temp Water Temp Dewpoint Dewpoint Depression Visibility Wind Speed Wind Dir Waves Ship Positions

Kokkari

Last reported at 2018-May-19 10:13 UTC. Time now 2018-Jun-20 07:08 UTC.
Position N 50°19' W 012°51'.
Warning: this ship's position is 31 days out of date.

Length 330 m; draft 20.5 m.

Type: Ship. MMSI: 311001100.

Date/timePositionNaut miles runAvg speedWind from/ knotsBaromVisibWave heightAir tempDewpointWater temp
2018-May-19 10:13N 50°19' W 012°51'2211.4
2018-May-19 08:16N 50°40' W 012°44'311.3
2018-May-19 08:00N 50°43' W 012°44'711.2
2018-May-19 07:24N 50°50' W 012°42'411.0
2018-May-19 07:00N 50°54' W 012°40'1011.2
2018-May-19 06:09N 51°04' W 012°37'611.4
2018-May-19 05:37N 51°10' W 012°35'2611.6
2018-May-19 03:22N 51°35' W 012°27'411.9
2018-May-19 03:00N 51°39' W 012°25'11411.7
2018-May-18 17:16N 53°31' W 011°48'1611.7
2018-May-18 15:53N 53°47' W 011°42'512.0
2018-May-18 15:27N 53°52' W 011°40'612.3
2018-May-18 14:59N 53°58' W 011°38'2911.8
2018-May-18 12:33N 54°26' W 011°29'212.0
2018-May-18 12:22N 54°28' W 011°28'712.0
2018-May-18 11:48N 54°35' W 011°26'  
2018-May-16 00:33N 57°18' W 001°23'0 7.7
2018-May-16 00:30N 57°17' W 001°23'11 8.1
2018-May-15 23:10N 57°07' W 001°30'2 8.5
2018-May-15 22:59N 57°06' W 001°31'5 8.9
2018-May-15 22:25N 57°01' W 001°35'4 9.3
2018-May-15 22:00N 56°58' W 001°37'3110.6
2018-May-15 19:07N 56°29' W 001°58'311.0
2018-May-15 18:52N 56°27' W 001°60'710.7
2018-May-15 18:10N 56°21' W 002°09'210.6
2018-May-15 18:00N 56°20' W 002°11'510.7
2018-May-15 17:30N 56°16' W 002°18'510.5
2018-May-15 17:00N 56°12' W 002°25'510.2
2018-May-15 16:30N 56°09' W 002°31'510.0
2018-May-15 16:00N 56°07' W 002°39'5 9.4
2018-May-15 15:30N 56°06' W 002°47'4 8.6
2018-May-15 15:00N 56°05' W 002°55'4 7.6
2018-May-15 14:30N 56°04' W 003°01'3 5.8
2018-May-15 14:00N 56°03' W 003°06'3 6.8
2018-May-15 13:30N 56°02' W 003°12'4 7.4
2018-May-15 13:00N 56°01' W 003°19'  
2018-May-12 20:32N 56°00' W 003°22'0 0.0
2018-May-12 20:29N 56°00' W 003°22'0 0.1
2018-May-12 20:00N 56°00' W 003°22'0 0.3
2018-May-12 19:30N 56°00' W 003°22'1 2.7
2018-May-12 19:00N 56°01' W 003°20'3 5.5
2018-May-12 18:30N 56°02' W 003°15'510.5
2018-May-12 18:00N 56°04' W 003°06'4 7.1
2018-May-12 17:30N 56°04' W 002°60'2 3.8
2018-May-12 17:00N 56°03' W 002°57'0 0.7
2018-May-12 16:28N 56°03' W 002°57'0 0.1
2018-May-12 15:58N 56°03' W 002°57'0 0.1
2018-May-12 15:28N 56°03' W 002°57'0 0.1
2018-May-12 14:58N 56°03' W 002°57'0 0.1
2018-May-12 14:28N 56°03' W 002°57'0 0.1
2018-May-12 13:58N 56°03' W 002°57'0 0.1
2018-May-12 13:28N 56°03' W 002°57'0 0.1
2018-May-12 12:58N 56°03' W 002°57'0 0.1
2018-May-12 12:28N 56°03' W 002°57'0 0.8
2018-May-12 12:00N 56°03' W 002°58'2 4.3
2018-May-12 11:31N 56°05' W 002°56'4 8.8
2018-May-12 11:00N 56°06' W 002°49'510.1
2018-May-12 10:30N 56°07' W 002°40'5 9.3
2018-May-12 10:00N 56°06' W 002°31'5 9.8
2018-May-12 09:31N 56°04' W 002°23'5 9.9
2018-May-12 09:00N 56°03' W 002°15'510.1
2018-May-12 08:31N 56°01' W 002°07'510.0
2018-May-12 08:01N 55°59' W 001°59'510.0
2018-May-12 07:30N 55°56' W 001°51'510.1
2018-May-12 07:01N 55°53' W 001°44'5 9.9
2018-May-12 06:31N 55°50' W 001°37'510.1
2018-May-12 06:01N 55°47' W 001°29'510.2
2018-May-12 05:31N 55°44' W 001°22'5 9.9
2018-May-12 05:01N 55°41' W 001°15'510.1
2018-May-12 04:31N 55°39' W 001°07'5 9.8
2018-May-12 04:01N 55°36' W 001°00'5 9.6
2018-May-12 03:31N 55°33' W 000°53'5 9.5
2018-May-12 03:01N 55°30' W 000°46'5 9.4
2018-May-12 02:31N 55°28' W 000°39'5 9.3
2018-May-12 02:01N 55°25' W 000°33'10 9.3
2018-May-12 00:58N 55°19' W 000°19'4 9.4
2018-May-12 00:30N 55°17' W 000°12'8 9.6
2018-May-11 23:42N 55°13' W 000°01'2 9.7
2018-May-11 23:30N 55°11' E 000°02'7 9.9
2018-May-11 22:45N 55°07' E 000°12'210.1
2018-May-11 22:31N 55°05' E 000°15'510.2
2018-May-11 22:00N 55°02' E 000°22'510.2
2018-May-11 21:30N 54°59' E 000°29'510.3
2018-May-11 21:01N 54°55' E 000°35'510.4
2018-May-11 20:31N 54°52' E 000°42'510.4
2018-May-11 20:00N 54°49' E 000°49'510.4
2018-May-11 19:30N 54°45' E 000°56'510.6
2018-May-11 19:01N 54°42' E 001°03'510.6
2018-May-11 18:31N 54°38' E 001°10'510.5
2018-May-11 18:01N 54°35' E 001°17'510.4
2018-May-11 17:31N 54°31' E 001°23'510.1
2018-May-11 17:01N 54°28' E 001°30'510.0
2018-May-11 16:30N 54°25' E 001°36'5 9.8
2018-May-11 16:00N 54°21' E 001°42'5 9.7
2018-May-11 15:31N 54°18' E 001°48'5 9.6
2018-May-11 14:59N 54°14' E 001°54'5 9.6
2018-May-11 14:30N 54°11' E 001°59'510.0
2018-May-11 14:01N 54°07' E 002°05'510.2
2018-May-11 13:30N 54°03' E 002°10'510.2
2018-May-11 12:58N 53°59' E 002°17'810.5
2018-May-11 12:10N 53°53' E 002°26'210.8
2018-May-11 12:00N 53°51' E 002°28'710.9
2018-May-11 11:22N 53°46' E 002°36'510.8
2018-May-11 10:57N 53°43' E 002°41'1310.9
2018-May-11 09:47N 53°34' E 002°57'7 7.9
2018-May-11 08:53N 53°27' E 002°58'4 9.6
2018-May-11 08:29N 53°24' E 002°55'712.4
2018-May-11 07:54N 53°17' E 002°50'613.8
2018-May-11 07:29N 53°12' E 002°46'713.7
2018-May-11 06:58N 53°05' E 002°41'713.4
2018-May-11 06:27N 52°58' E 002°41'613.3
2018-May-11 06:00N 52°52' E 002°41'613.0
2018-May-11 05:30N 52°46' E 002°40'812.2
2018-May-11 04:49N 52°38' E 002°40'411.8
2018-May-11 04:30N 52°34' E 002°40'611.8
2018-May-11 04:00N 52°28' E 002°40'612.0
2018-May-11 03:30N 52°22' E 002°40'712.5
2018-May-11 02:59N 52°15' E 002°40'712.8
2018-May-11 02:27N 52°09' E 002°40'613.0
2018-May-11 02:00N 52°03' E 002°40'713.2
2018-May-11 01:30N 51°56' E 002°40'712.4
2018-May-11 00:59N 51°50' E 002°39'613.3
2018-May-11 00:30N 51°45' E 002°33'713.4
2018-May-11 00:00N 51°39' E 002°26'713.4
2018-May-10 23:30N 51°34' E 002°20'713.6
2018-May-10 23:00N 51°29' E 002°12'1413.7
2018-May-10 22:00N 51°19' E 001°57'713.6
2018-May-10 21:30N 51°14' E 001°51'713.9
2018-May-10 21:00N 51°09' E 001°43'714.3
2018-May-10 20:30N 51°03' E 001°36'714.7
2018-May-10 20:00N 50°57' E 001°29'714.1
2018-May-10 19:30N 50°50' E 001°26'714.5
2018-May-10 19:00N 50°43' E 001°23'713.6
2018-May-10 18:30N 50°38' E 001°16'714.3
2018-May-10 18:00N 50°34' E 001°07'714.5
2018-May-10 17:30N 50°29' E 000°58'714.5
2018-May-10 17:00N 50°26' E 000°48'814.9
2018-May-10 16:30N 50°24' E 000°37'715.1
2018-May-10 16:00N 50°22' E 000°26'815.1
2018-May-10 15:30N 50°20' E 000°14'815.2
2018-May-10 15:01N 50°18' E 000°03'715.0
2018-May-10 14:31N 50°15' W 000°08'714.9
2018-May-10 14:00N 50°12' W 000°19'714.7
2018-May-10 13:30N 50°09' W 000°29'612.7
2018-May-10 13:00N 50°04' W 000°36'713.6
2018-May-10 12:31N 49°59' W 000°30'714.0
2018-May-10 12:00N 49°53' W 000°24'713.5
2018-May-10 11:30N 49°48' W 000°16'613.0
2018-May-10 11:00N 49°44' W 000°09'612.2
2018-May-10 10:30N 49°41' W 000°00'510.2
2018-May-10 10:01N 49°39' E 000°07'1 2.0
2018-May-10 09:30N 49°40' E 000°08'0 0.0
2018-May-10 09:00N 49°40' E 000°08'0 0.0
2018-May-10 08:30N 49°40' E 000°08'0 0.0
2018-May-10 08:00N 49°40' E 000°08'0 0.0
2018-May-10 07:30N 49°40' E 000°08'0 0.0
2018-May-10 07:00N 49°40' E 000°08'0 0.0
2018-May-10 06:30N 49°40' E 000°08'0 0.0
2018-May-10 05:51N 49°40' E 000°08'0 0.0
2018-May-10 05:30N 49°40' E 000°08'0 0.0
2018-May-10 05:00N 49°40' E 000°08'0 0.0
2018-May-10 04:30N 49°40' E 000°08'0 0.0
2018-May-10 04:00N 49°40' E 000°08'0 0.0
2018-May-10 03:30N 49°40' E 000°08'0 0.0
2018-May-10 03:00N 49°40' E 000°08'0 0.0
2018-May-10 02:30N 49°40' E 000°08'0 0.0
2018-May-10 02:00N 49°40' E 000°08'0 0.0
2018-May-10 01:30N 49°40' E 000°08'0 0.0
2018-May-10 01:00N 49°40' E 000°08'0 0.0
2018-May-10 00:30N 49°40' E 000°08'0 0.0
2018-May-09 23:57N 49°40' E 000°08'0 0.0
2018-May-09 23:30N 49°40' E 000°08'0 0.0
2018-May-09 23:00N 49°40' E 000°08'0 0.0
2018-May-09 22:27N 49°40' E 000°08'0 0.0
2018-May-09 21:57N 49°40' E 000°08'0 0.0
2018-May-09 21:21N 49°40' E 000°08'0 0.0
2018-May-09 20:57N 49°40' E 000°08'0 0.0
2018-May-09 20:30N 49°40' E 000°08'0 0.0
2018-May-09 20:00N 49°40' E 000°08'0 0.0
2018-May-09 19:30N 49°40' E 000°08'0 0.0
2018-May-09 19:00N 49°40' E 000°08'0 0.0
2018-May-09 18:30N 49°40' E 000°08'0 0.0
2018-May-09 18:00N 49°40' E 000°08'0 0.0
2018-May-09 17:30N 49°40' E 000°08'0 0.0
2018-May-09 17:00N 49°40' E 000°08'0 0.0
2018-May-09 16:30N 49°40' E 000°08'0 0.0
2018-May-09 16:00N 49°40' E 000°08'0 0.0
2018-May-09 15:30N 49°40' E 000°08'0 0.0
2018-May-09 15:00N 49°40' E 000°08'0 0.0
2018-May-09 14:30N 49°40' E 000°08'0 0.0
2018-May-09 14:00N 49°40' E 000°08'0 0.0
2018-May-09 13:30N 49°40' E 000°08'0 0.0
2018-May-09 13:00N 49°40' E 000°08'0 0.0
2018-May-09 12:30N 49°40' E 000°08'0 0.0
2018-May-09 12:00N 49°40' E 000°08'0 0.0
2018-May-09 11:24N 49°40' E 000°08'0 0.0
2018-May-09 11:00N 49°40' E 000°08'0 0.0
2018-May-09 10:30N 49°40' E 000°08'  

Dump ship's entire track history